Portada
METAR-TAF:

METAR-TAF

Aeropuertos :

Xi'an, China

Aeropuerto Internacional de Xi'an-Xianyang

latitud: 34-26N, longitud: 108-45E, altitud: 479 m

Observación

El informe se hizo hace 15 minutos, a las 23:00 UTC
Viento calma
Temperatura 19°C
Humedad 94%
Presión 1010 hPa
Visibilidad: 1700 m
neblina

METAR: ZLXY 212300Z 00000MPS 1700 BR NSC 19/18 Q1010 NOSIG

Hora: 07:15 (23:15 UTC)

Pronóstico

El informe se hizo hace 8 horas y 8 minutos, a las 15:07 UTC
Pronóstico válido del 21 a las 18 UTC al 22 a las 18 UTC
Viento 6 kt del este-noreste
Visibilidad: 3000 m
neblina
Temporalmente
del 21 a las 18 UTC al 21 a las 24 UTC
Visibilidad: 2400 m
lluvia ligera, neblina

TAF: ZLXY 211507Z 2118/2218 06003MPS 3000 BR NSC TX24/2207Z TN18/2123Z TEMPO 2118/2124 2400 -RA BR

Observaciones y pronósticos meteorológicos de más de 4000 aeropuertos (mensajes METAR y TAF).

Los puntos amarillos y rojos representan las estaciones disponibles.

Ponga el ratón en el punto deseado para ver el nombre de la estación.

Haga clic para ver las observaciones y los pronósticos meteorológicos.

Para cambiar el mapa : haga clic en los botones verdes con una cruz de color negro para hacer un zoom, en el botón verde con un guión para alejar o en las flechas verdes para mapas adyacentes.


METAR-TAF: